Time;durP1;ratioP1;P1;durP2;ratioP2;P2;SDS_P1;SDS_P2;PMS_P1;PMS_P2;Temp;Humidity;BMP_temperature;BMP_pressure;BME280_temperature;BME280_humidity;BME280_pressure;Samples;Min_cycle;Max_cycle;Signal;HPM_P1;HPM_P2
2023/04/17 00:01:19;;;;;;;285.77;57.47;;;8.30;99.90;;;7.28;100.00;97746.78;5050124;28;21081;-77
2023/04/17 00:03:45;;;;;;;252.10;55.38;;;8.30;99.90;;;7.27;100.00;97748.59;5034160;28;20414;-77
2023/04/17 00:06:12;;;;;;;260.30;53.83;;;8.30;99.90;;;7.28;100.00;97744.16;5034101;28;20403;-77
2023/04/17 00:08:39;;;;;;;273.67;59.35;;;8.30;99.90;;;7.29;100.00;97749.16;5035108;28;20461;-77
2023/04/17 00:11:05;;;;;;;248.77;53.72;;;8.30;99.90;;;7.29;100.00;97749.16;5035531;28;20403;-78
2023/04/17 00:13:30;;;;;;;190.13;48.42;;;8.30;99.90;;;7.31;100.00;97746.31;5034761;28;20422;-77
2023/04/17 00:15:56;;;;;;;211.77;52.45;;;8.30;99.90;;;7.32;100.00;97747.94;5034212;28;20402;-75
2023/04/17 00:18:24;;;;;;;285.60;58.50;;;8.30;99.90;;;7.28;100.00;97736.25;5048599;28;20430;-77
2023/04/17 00:20:49;;;;;;;220.23;51.20;;;8.30;99.90;;;7.28;100.00;97738.88;5048633;28;20785;-77
2023/04/17 00:23:15;;;;;;;189.10;46.83;;;8.30;99.90;;;7.27;100.00;97737.28;5033229;28;20533;-77
2023/04/17 00:25:41;;;;;;;229.35;45.00;;;8.30;99.90;;;7.25;100.00;97734.03;5033263;28;20489;-77
2023/04/17 00:28:07;;;;;;;234.98;47.25;;;8.30;99.90;;;7.24;100.00;97741.13;5033285;28;20759;-77
2023/04/17 00:30:33;;;;;;;252.23;50.17;;;8.30;99.90;;;7.25;100.00;97734.84;5032232;28;20403;-77
2023/04/17 00:32:59;;;;;;;217.20;44.50;;;8.30;99.90;;;7.27;100.00;97734.63;5052593;23;20496;-78
2023/04/17 00:35:26;;;;;;;219.38;44.63;;;8.30;99.90;;;7.25;100.00;97728.78;5041490;28;20410;-78
2023/04/17 00:37:52;;;;;;;261.73;54.80;;;8.30;99.90;;;7.28;100.00;97731.78;5044020;28;20762;-78
2023/04/17 00:40:18;;;;;;;216.10;45.80;;;8.30;99.90;;;7.26;100.00;97733.84;5046390;28;20405;-78
2023/04/17 00:42:47;;;;;;;262.05;51.85;;;8.30;99.90;;;7.27;100.00;97734.63;5046275;28;20407;-78
2023/04/17 00:45:13;;;;;;;234.90;47.83;;;8.30;99.90;;;7.25;100.00;97732.22;5044821;28;20904;-78
2023/04/17 00:47:39;;;;;;;207.38;42.47;;;8.30;99.90;;;7.27;100.00;97732.00;5049817;28;20399;-78
2023/04/17 00:50:07;;;;;;;230.73;47.25;;;8.30;99.90;;;7.25;100.00;97726.97;5048915;28;20613;-78
2023/04/17 00:52:34;;;;;;;240.88;44.88;;;8.30;99.90;;;7.25;100.00;97721.69;5050959;28;20498;-78
2023/04/17 00:55:01;;;;;;;235.25;43.95;;;8.30;99.90;;;7.26;100.00;97722.50;5051334;28;20427;-78
2023/04/17 00:57:27;;;;;;;220.30;42.38;;;8.20;99.90;;;7.25;100.00;97724.31;5047037;28;20415;-77
2023/04/17 00:59:55;;;;;;;186.88;39.58;;;8.30;99.90;;;7.26;100.00;97723.31;5036182;28;20399;-76
2023/04/17 01:02:21;;;;;;;237.93;51.22;;;8.30;99.90;;;7.29;100.00;97725.47;5033409;28;20395;-76
2023/04/17 01:04:47;;;;;;;213.52;46.97;;;8.30;99.90;;;7.28;100.00;97718.63;5032628;28;20398;-77
2023/04/17 01:07:13;;;;;;;222.63;50.15;;;8.30;99.90;;;7.27;100.00;97717.00;5032560;28;20429;-77
2023/04/17 01:09:40;;;;;;;211.93;46.03;;;8.30;99.90;;;7.26;100.00;97720.66;5032265;28;20988;-77
2023/04/17 01:12:18;;;;;;;198.03;46.97;;;8.30;99.90;;;7.27;100.00;97713.56;5032421;28;20403;-77
2023/04/17 01:14:44;;;;;;;222.77;46.45;;;8.30;99.90;;;7.23;100.00;97717.66;5032166;28;20399;-77
2023/04/17 01:17:13;;;;;;;211.82;45.90;;;8.30;99.90;;;7.23;100.00;97715.03;5034193;28;20410;-77
2023/04/17 01:19:40;;;;;;;229.48;46.28;;;8.30;99.90;;;7.23;100.00;97715.03;5032220;28;20416;-76
2023/04/17 01:22:06;;;;;;;244.93;49.80;;;8.20;99.90;;;7.24;100.00;97706.91;5032035;28;20465;-77
2023/04/17 01:24:33;;;;;;;218.70;45.65;;;8.20;99.90;;;7.25;100.00;97707.72;5031972;28;20486;-77
2023/04/17 01:26:59;;;;;;;205.88;42.65;;;8.20;99.90;;;7.23;100.00;97712.41;5032488;28;20411;-77
2023/04/17 01:29:25;;;;;;;225.90;45.60;;;8.20;99.90;;;7.24;100.00;97720.06;5033303;28;20400;-77
2023/04/17 01:31:51;;;;;;;220.03;47.80;;;8.20;99.90;;;7.23;100.00;97715.84;5032766;28;20468;-77
2023/04/17 01:34:17;;;;;;;242.30;43.53;;;8.30;99.90;;;7.24;100.00;97712.19;5033066;28;20410;-77
2023/04/17 01:36:43;;;;;;;232.10;46.95;;;8.30;99.90;;;7.27;100.00;97718.84;5032829;28;20414;-77
2023/04/17 01:39:09;;;;;;;244.13;49.45;;;8.30;99.90;;;7.24;100.00;97714.81;5032721;28;20419;-77
2023/04/17 01:41:36;;;;;;;222.03;44.53;;;8.20;99.90;;;7.25;100.00;97715.63;5032527;28;20950;-77
2023/04/17 01:44:02;;;;;;;259.55;51.67;;;8.30;99.90;;;7.22;100.00;97719.50;5032638;28;20522;-77
2023/04/17 01:46:28;;;;;;;236.73;44.33;;;8.20;99.90;;;7.21;100.00;97710.00;5032870;28;20441;-77
2023/04/17 01:48:54;;;;;;;242.15;45.08;;;8.20;99.90;;;7.22;100.00;97713.41;5031737;28;21047;-77
2023/04/17 01:51:20;;;;;;;249.40;48.88;;;8.20;99.90;;;7.22;100.00;97719.50;5032650;28;20449;-77
2023/04/17 01:53:46;;;;;;;238.60;50.37;;;8.20;99.90;;;7.22;100.00;97719.50;5031573;28;20450;-77
2023/04/17 01:56:12;;;;;;;233.63;52.03;;;8.20;99.90;;;7.24;100.00;97714.00;5032407;28;20485;-77
2023/04/17 01:58:39;;;;;;;192.63;48.70;;;8.20;99.90;;;7.28;100.00;97715.19;5031345;28;20423;-77
2023/04/17 02:01:05;;;;;;;234.80;51.10;;;8.30;99.90;;;7.26;100.00;97710.13;5032108;28;20457;-77
2023/04/17 02:03:31;;;;;;;176.80;42.90;;;8.30;99.90;;;7.25;100.00;97710.34;5032412;28;20406;-77
2023/04/17 02:05:57;;;;;;;241.32;52.83;;;8.20;99.90;;;7.25;100.00;97708.53;5032088;28;20419;-77
2023/04/17 02:08:23;;;;;;;259.52;52.53;;;8.30;99.90;;;7.21;100.00;97706.56;5032037;28;20469;-77
2023/04/17 02:10:49;;;;;;;258.15;52.90;;;8.20;99.90;;;7.19;100.00;97701.53;5031860;28;20403;-77
2023/04/17 02:13:15;;;;;;;201.65;46.25;;;8.20;99.90;;;7.18;100.00;97704.38;5031946;28;20399;-77
2023/04/17 02:15:43;;;;;;;231.23;46.70;;;8.20;99.90;;;7.17;100.00;97700.13;5031417;28;20495;-77
2023/04/17 02:18:09;;;;;;;220.05;45.47;;;8.20;99.90;;;7.17;100.00;97711.47;5031011;28;20939;-77
2023/04/17 02:20:36;;;;;;;251.90;50.35;;;8.20;99.90;;;7.19;100.00;97711.25;5030979;28;20908;-77
2023/04/17 02:23:04;;;;;;;173.98;41.92;;;8.20;99.90;;;7.21;100.00;97702.09;5030910;28;20427;-77
2023/04/17 02:25:30;;;;;;;217.07;51.88;;;8.20;99.90;;;7.24;100.00;97700.84;5030914;28;20757;-77
2023/04/17 02:27:56;;;;;;;251.02;57.50;;;8.20;99.90;;;7.21;100.00;97707.38;5031025;28;20430;-77
2023/04/17 02:30:23;;;;;;;227.80;47.60;;;8.20;99.90;;;7.18;100.00;97707.81;5031324;28;20395;-77
2023/04/17 02:32:52;;;;;;;226.60;47.72;;;8.20;99.90;;;7.15;100.00;97700.34;5031442;28;20410;-77
2023/04/17 02:35:22;;;;;;;232.98;49.60;;;8.20;99.90;;;7.15;100.00;97710.06;5029896;28;20788;-77
2023/04/17 02:37:48;;;;;;;263.70;52.00;;;8.20;99.90;;;7.14;100.00;97714.53;5031059;28;20422;-77
2023/04/17 02:40:14;;;;;;;241.13;49.10;;;8.10;99.90;;;7.13;100.00;97712.94;5029369;28;20453;-77
2023/04/17 02:42:40;;;;;;;226.88;45.55;;;8.20;99.90;;;7.13;100.00;97718.19;5030765;28;20403;-77
2023/04/17 02:45:08;;;;;;;238.85;47.60;;;8.20;99.90;;;7.14;100.00;97714.53;5029294;28;20577;-77
2023/04/17 02:47:34;;;;;;;238.10;49.67;;;8.20;99.90;;;7.15;100.00;97712.69;5029433;28;20438;-77
2023/04/17 02:50:01;;;;;;;206.33;50.80;;;8.20;99.90;;;7.16;100.00;97714.31;5030456;28;20494;-77
2023/04/17 02:52:28;;;;;;;233.43;48.70;;;8.10;99.90;;;7.16;100.00;97709.84;5030711;28;20487;-77
2023/04/17 02:54:55;;;;;;;262.88;55.38;;;8.20;99.90;;;7.15;100.00;97705.59;5030563;28;20881;-77
2023/04/17 02:57:21;;;;;;;258.25;53.05;;;8.10;99.90;;;7.14;100.00;97711.88;5030414;28;20411;-77
2023/04/17 02:59:47;;;;;;;248.32;50.15;;;8.20;99.90;;;7.14;100.00;97714.53;5029188;28;20407;-77
2023/04/17 03:02:13;;;;;;;233.85;51.75;;;8.10;99.90;;;7.15;100.00;97708.22;5029179;28;20403;-77
2023/04/17 03:04:42;;;;;;;257.07;59.17;;;8.20;99.90;;;7.12;100.00;97710.53;5030249;28;20902;-76
2023/04/17 03:07:09;;;;;;;239.07;51.75;;;8.10;99.90;;;7.10;100.00;97708.09;5029712;28;20757;-77
2023/04/17 03:09:35;;;;;;;222.15;49.80;;;8.10;99.90;;;7.08;100.00;97711.97;5030400;28;20809;-76
2023/04/17 03:12:01;;;;;;;244.73;52.30;;;8.10;99.90;;;7.11;100.00;97717.63;5030240;28;20403;-77
2023/04/17 03:14:27;;;;;;;206.67;49.30;;;8.10;99.90;;;7.09;100.00;97711.75;5030322;28;20409;-77
2023/04/17 03:16:53;;;;;;;203.35;50.00;;;8.10;99.90;;;7.10;100.00;97710.72;5030467;28;20545;-76
2023/04/17 03:19:19;;;;;;;234.15;51.88;;;8.10;99.90;;;7.10;100.00;97710.72;5030570;28;20498;-77
2023/04/17 03:21:45;;;;;;;254.55;60.05;;;8.10;99.90;;;7.08;100.00;97707.50;5030146;28;20399;-77
2023/04/17 03:24:12;;;;;;;238.40;51.35;;;8.10;99.90;;;7.04;100.00;97714.25;5030295;28;20407;-77
2023/04/17 03:26:38;;;;;;;249.48;51.65;;;8.10;99.90;;;7.04;100.00;97708.19;5030379;28;20414;-77
2023/04/17 03:29:04;;;;;;;220.52;51.22;;;8.10;99.90;;;7.09;100.00;97709.13;5030300;28;20403;-77
2023/04/17 03:31:30;;;;;;;218.35;46.55;;;8.10;99.90;;;7.05;100.00;97707.16;5030033;28;20912;-77
2023/04/17 03:33:55;;;;;;;183.57;48.63;;;8.10;99.90;;;7.08;100.00;97706.69;5030414;28;20527;-77
2023/04/17 03:36:21;;;;;;;251.70;49.88;;;8.10;99.90;;;7.05;100.00;97707.97;5031272;28;20484;-77
2023/04/17 03:38:47;;;;;;;222.95;49.25;;;8.10;99.90;;;7.06;100.00;97706.13;5031189;28;20454;-77
2023/04/17 03:41:14;;;;;;;172.25;49.17;;;8.10;99.90;;;7.16;100.00;97717.75;5030860;28;20439;-77
2023/04/17 03:43:40;;;;;;;179.40;46.55;;;8.10;99.90;;;7.12;100.00;97713.97;5030932;28;20900;-77
2023/04/17 03:46:06;;;;;;;220.48;47.30;;;8.10;99.90;;;7.08;100.00;97718.03;5030628;28;20407;-77
2023/04/17 03:48:32;;;;;;;247.75;52.15;;;8.10;99.90;;;7.06;100.00;97717.47;5027894;28;20403;-77
2023/04/17 03:50:58;;;;;;;233.43;49.77;;;8.10;99.90;;;7.05;100.00;97715.06;5028673;28;20852;-77
2023/04/17 03:53:24;;;;;;;248.07;53.47;;;8.10;99.90;;;7.03;100.00;97712.63;5031008;28;20407;-77
2023/04/17 03:55:50;;;;;;;212.23;46.30;;;8.00;99.90;;;7.04;100.00;97716.06;5035861;28;20407;-78
2023/04/17 03:58:17;;;;;;;252.15;51.03;;;8.10;99.90;;;7.04;100.00;97723.97;5045714;28;21003;-77
2023/04/17 04:00:44;;;;;;;217.27;50.22;;;8.10;99.90;;;7.04;100.00;97724.78;5029730;28;20413;-76
2023/04/17 04:03:10;;;;;;;242.68;50.58;;;8.10;99.90;;;7.05;100.00;97721.13;5029337;28;20411;-76
2023/04/17 04:05:36;;;;;;;203.88;45.70;;;8.00;99.90;;;7.03;100.00;97723.16;5027400;28;20474;-77
2023/04/17 04:08:02;;;;;;;237.57;52.75;;;8.10;99.90;;;7.04;100.00;97718.72;5031866;28;20506;-76
2023/04/17 04:10:28;;;;;;;196.85;44.38;;;8.10;99.90;;;7.03;100.00;97725.00;5028970;28;20473;-76
2023/04/17 04:12:54;;;;;;;237.05;50.95;;;8.00;99.90;;;7.02;100.00;97729.44;5030902;28;20415;-76
2023/04/17 04:15:22;;;;;;;198.60;45.15;;;8.10;99.90;;;7.02;100.00;97728.66;5032476;28;20407;-76
2023/04/17 04:17:47;;;;;;;194.15;46.40;;;8.00;99.90;;;7.02;100.00;97729.44;5028632;28;20439;-76
2023/04/17 04:20:13;;;;;;;246.05;51.05;;;8.00;99.90;;;7.01;100.00;97733.09;5032960;28;20933;-77
2023/04/17 04:22:40;;;;;;;220.67;48.40;;;8.10;99.90;;;7.03;100.00;97735.53;5033359;28;20457;-77
2023/04/17 04:25:07;;;;;;;232.87;54.83;;;8.00;99.90;;;7.00;100.00;97732.28;5033225;28;20917;-77
2023/04/17 04:27:33;;;;;;;249.13;56.75;;;8.00;99.90;;;7.00;100.00;97731.50;5030735;28;20402;-76
2023/04/17 04:30:00;;;;;;;195.18;48.13;;;8.00;99.90;;;7.03;100.00;97736.31;5033218;28;20825;-77
2023/04/17 04:32:28;;;;;;;236.05;49.03;;;8.00;99.90;;;6.99;100.00;97732.53;5032660;28;20403;-77
2023/04/17 04:34:55;;;;;;;230.63;51.40;;;8.00;99.90;;;6.99;100.00;97730.69;5032912;28;20411;-76
2023/04/17 04:37:28;;;;;;;234.55;49.00;;;8.00;99.90;;;6.98;100.00;97731.72;5033161;28;20815;-76
2023/04/17 04:40:05;;;;;;;211.20;45.03;;;8.00;99.90;;;6.99;100.00;97735.16;5031072;28;20498;-76
2023/04/17 04:42:31;;;;;;;202.45;47.75;;;8.00;99.90;;;6.99;100.00;97735.94;5025547;28;20897;-76
2023/04/17 04:44:57;;;;;;;256.40;53.47;;;8.00;99.90;;;6.99;100.00;97737.81;5032692;28;20414;-76
2023/04/17 04:47:23;;;;;;;224.30;50.35;;;8.00;99.90;;;6.98;100.00;97733.56;5032898;28;20410;-77
2023/04/17 04:49:50;;;;;;;257.95;51.47;;;8.00;99.90;;;6.98;100.00;97738.81;5031925;28;20493;-76
2023/04/17 04:52:16;;;;;;;237.88;47.58;;;8.00;99.90;;;6.98;100.00;97739.63;5032562;28;20470;-77
2023/04/17 04:54:42;;;;;;;204.82;46.20;;;8.00;99.90;;;6.98;100.00;97739.63;5031872;28;20502;-76
2023/04/17 04:57:08;;;;;;;243.03;47.07;;;8.00;99.90;;;7.00;100.00;97742.81;5031320;28;20411;-76
2023/04/17 04:59:34;;;;;;;196.55;44.85;;;8.00;99.90;;;7.00;100.00;97740.19;5032616;28;20422;-76
2023/04/17 05:02:00;;;;;;;219.57;48.47;;;8.00;99.90;;;7.03;100.00;97741.59;5030101;28;20901;-77
2023/04/17 05:04:26;;;;;;;231.47;48.77;;;8.10;99.90;;;7.03;100.00;97743.41;5032617;28;20456;-76
2023/04/17 05:06:53;;;;;;;182.87;43.30;;;8.00;99.90;;;7.05;100.00;97747.44;5031456;28;20854;-77
2023/04/17 05:09:19;;;;;;;244.55;47.20;;;8.00;99.90;;;7.03;100.00;97754.75;5023389;28;20423;-77
2023/04/17 05:11:45;;;;;;;196.73;45.60;;;8.10;99.90;;;7.08;100.00;97751.44;5030300;28;20478;-77
2023/04/17 05:14:11;;;;;;;212.10;45.40;;;8.10;99.90;;;7.09;100.00;97755.69;5030619;28;20498;-77
2023/04/17 05:16:37;;;;;;;233.48;46.00;;;8.10;99.90;;;7.07;100.00;97750.66;5031373;28;20808;-77
2023/04/17 05:19:03;;;;;;;240.13;51.95;;;8.10;99.90;;;7.09;100.00;97751.25;5030493;28;20442;-77
2023/04/17 05:21:29;;;;;;;220.90;48.20;;;8.10;99.90;;;7.09;100.00;97748.59;5031618;28;20439;-77
2023/04/17 05:23:56;;;;;;;200.07;44.25;;;8.10;99.90;;;7.10;100.00;97754.69;5032205;28;20768;-77
2023/04/17 05:26:22;;;;;;;250.17;53.30;;;8.10;99.90;;;7.09;100.00;97753.88;5032290;28;20477;-77
2023/04/17 05:28:48;;;;;;;193.18;45.00;;;8.10;99.90;;;7.12;100.00;97755.28;5032290;28;20407;-77
2023/04/17 05:31:14;;;;;;;235.00;52.80;;;8.10;99.90;;;7.11;100.00;97758.91;5031214;28;20405;-77
2023/04/17 05:33:40;;;;;;;201.77;44.17;;;8.10;99.90;;;7.12;100.00;97753.44;5032025;28;20399;-77
2023/04/17 05:36:07;;;;;;;222.27;44.65;;;8.10;99.90;;;7.12;100.00;97752.63;5032107;28;20442;-77
2023/04/17 05:38:33;;;;;;;199.68;44.42;;;8.10;99.90;;;7.15;100.00;97760.88;5031949;28;20422;-76
2023/04/17 05:41:00;;;;;;;226.00;47.40;;;8.20;99.90;;;7.15;100.00;97763.50;5033223;28;20403;-77
2023/04/17 05:43:27;;;;;;;188.85;39.83;;;8.20;99.90;;;7.17;100.00;97758.84;5031738;28;20503;-77
2023/04/17 05:45:53;;;;;;;168.60;43.53;;;8.20;99.90;;;7.18;100.00;97763.09;5031985;28;20415;-77
2023/04/17 05:48:18;;;;;;;195.27;44.33;;;8.20;99.90;;;7.18;100.00;97767.53;5032026;28;20431;-77
2023/04/17 05:50:44;;;;;;;228.50;48.38;;;8.20;99.90;;;7.17;100.00;97768.56;5031885;28;20415;-77
2023/04/17 05:53:10;;;;;;;225.73;48.85;;;8.20;99.90;;;7.21;100.00;97772.38;5031786;28;20486;-77
2023/04/17 05:55:36;;;;;;;188.57;42.47;;;8.20;99.90;;;7.19;100.00;97764.69;5031888;28;20502;-77
2023/04/17 05:58:04;;;;;;;204.07;44.72;;;8.20;99.90;;;7.18;100.00;97770.19;5031689;28;20589;-77
2023/04/17 06:00:30;;;;;;;195.82;39.17;;;8.20;99.90;;;7.18;100.00;97764.91;5031610;28;20407;-77
2023/04/17 06:02:55;;;;;;;197.68;40.13;;;8.20;99.90;;;7.19;100.00;97766.53;5031412;28;20469;-77
2023/04/17 06:05:22;;;;;;;187.02;38.65;;;8.20;99.90;;;7.20;100.00;97766.31;5031897;28;20410;-77
2023/04/17 06:07:48;;;;;;;192.55;43.80;;;8.20;99.90;;;7.22;100.00;97774.78;5032039;28;20408;-77
2023/04/17 06:10:14;;;;;;;191.88;41.08;;;8.20;99.90;;;7.19;100.00;97769.16;5032387;28;20403;-77
2023/04/17 06:12:41;;;;;;;192.88;41.92;;;8.20;99.90;;;7.19;100.00;97771.78;5032103;28;20761;-77
2023/04/17 06:15:10;;;;;;;219.43;45.95;;;8.20;99.90;;;7.16;100.00;97767.75;5031346;28;20407;-76
2023/04/17 06:17:37;;;;;;;175.07;39.50;;;8.20;99.90;;;7.19;100.00;97774.44;5031172;28;20399;-77
2023/04/17 06:20:06;;;;;;;168.40;41.40;;;8.20;99.90;;;7.18;100.00;97778.88;5029779;28;20442;-76
2023/04/17 06:22:32;;;;;;;178.52;41.38;;;8.20;99.90;;;7.16;100.00;97780.94;5031262;28;20402;-76
2023/04/17 06:24:57;;;;;;;185.38;43.40;;;8.20;99.90;;;7.18;100.00;97781.50;5029637;28;20418;-76
2023/04/17 06:27:23;;;;;;;205.90;45.75;;;8.10;99.90;;;7.15;100.00;97784.56;5030093;28;20421;-77
2023/04/17 06:29:49;;;;;;;225.67;47.97;;;8.10;99.90;;;7.12;100.00;97782.41;5031245;28;20422;-77
2023/04/17 06:32:17;;;;;;;215.38;46.10;;;8.10;99.90;;;7.13;100.00;97781.38;5045416;22;20439;-76
2023/04/17 06:34:43;;;;;;;169.57;36.50;;;8.10;99.90;;;7.15;100.00;97781.94;5030942;28;20407;-76
2023/04/17 06:37:08;;;;;;;191.73;42.15;;;8.20;99.90;;;7.17;100.00;97781.72;5029015;28;20772;-75
2023/04/17 06:39:35;;;;;;;159.32;39.30;;;8.20;99.90;;;7.22;100.00;97777.41;5024940;28;20517;-75
2023/04/17 06:42:01;;;;;;;176.07;39.90;;;8.20;99.90;;;7.21;100.00;97781.09;5030625;28;20407;-75
2023/04/17 06:44:27;;;;;;;182.43;38.47;;;8.20;99.90;;;7.23;100.00;97788.75;5029216;28;20414;-75
2023/04/17 06:46:53;;;;;;;152.80;36.50;;;8.20;99.90;;;7.26;100.00;97785.69;5028999;28;20450;-74
2023/04/17 06:49:23;;;;;;;178.32;35.63;;;8.30;99.90;;;7.28;100.00;97786.28;5025187;28;20775;-76
2023/04/17 06:51:50;;;;;;;193.55;41.58;;;8.30;99.90;;;7.33;100.00;97791.69;5027621;28;20753;-76
2023/04/17 06:54:16;;;;;;;191.90;43.75;;;8.30;99.90;;;7.35;100.00;97787.00;5028727;28;20399;-76
2023/04/17 06:56:42;;;;;;;211.07;48.33;;;8.30;99.90;;;7.38;100.00;97791.81;5030453;28;20406;-76
2023/04/17 06:59:08;;;;;;;202.38;42.58;;;8.40;99.90;;;7.36;100.00;97789.44;5029457;28;20415;-76
2023/04/17 07:01:34;;;;;;;175.87;43.33;;;8.40;99.90;;;7.39;100.00;97790.78;5029106;28;20595;-76
2023/04/17 07:04:02;;;;;;;200.38;39.67;;;8.40;99.90;;;7.39;100.00;97793.44;5029035;28;20407;-76
2023/04/17 07:06:30;;;;;;;160.45;35.58;;;8.40;99.90;;;7.43;100.00;97797.25;5030185;28;20885;-76
2023/04/17 07:08:56;;;;;;;185.07;39.97;;;8.40;99.90;;;7.41;100.00;97790.59;5030145;28;20832;-76
2023/04/17 07:11:22;;;;;;;188.52;39.90;;;8.40;99.90;;;7.36;100.00;97799.97;5030208;28;20415;-76
2023/04/17 07:13:48;;;;;;;153.10;37.10;;;8.40;99.90;;;7.40;100.00;97802.94;5030223;28;20885;-76
2023/04/17 07:16:15;;;;;;;187.00;38.78;;;8.40;99.90;;;7.37;100.00;97798.09;5029938;28;20410;-76
2023/04/17 07:18:41;;;;;;;166.48;36.88;;;8.40;99.90;;;7.38;100.00;97799.72;5027395;28;20904;-75
2023/04/17 07:21:06;;;;;;;148.65;37.55;;;8.40;99.90;;;7.41;100.00;97809.81;5025555;28;20411;-75
2023/04/17 07:23:36;;;;;;;164.03;40.37;;;8.40;99.90;;;7.41;100.00;97803.75;5028893;28;21084;-75
2023/04/17 07:26:02;;;;;;;171.15;36.25;;;8.40;99.90;;;7.37;100.00;97804.19;5030278;28;20410;-75
2023/04/17 07:28:28;;;;;;;176.63;44.53;;;8.30;99.90;;;7.42;100.00;97805.38;5031076;28;20494;-75
2023/04/17 07:30:56;;;;;;;170.48;37.83;;;8.40;99.90;;;7.39;100.00;97803.97;5031107;28;20899;-76
2023/04/17 07:33:22;;;;;;;159.13;35.65;;;8.40;99.90;;;7.39;100.00;97806.59;5028895;28;20561;-75
2023/04/17 07:35:48;;;;;;;152.88;36.10;;;8.40;99.90;;;7.41;100.00;97804.56;5029203;28;21016;-77
2023/04/17 07:38:14;;;;;;;148.77;33.50;;;8.40;99.90;;;7.46;100.00;97817.06;5030805;28;20415;-76
2023/04/17 07:40:42;;;;;;;136.77;31.80;;;8.40;99.90;;;7.50;100.00;97810.34;5023005;28;20399;-76
2023/04/17 07:43:08;;;;;;;152.93;34.63;;;8.50;99.90;;;7.50;100.00;97805.88;5024358;28;20411;-76
2023/04/17 07:45:35;;;;;;;123.57;28.67;;;8.50;99.90;;;7.54;100.00;97807.03;5008736;28;20440;-76
2023/04/17 07:48:01;;;;;;;149.77;32.53;;;8.50;99.90;;;7.54;100.00;97816.75;5024383;28;20409;-76
2023/04/17 07:50:27;;;;;;;155.57;34.70;;;8.50;99.90;;;7.58;100.00;97818.75;5064094;28;20413;-76
2023/04/17 07:52:53;;;;;;;115.32;28.63;;;8.60;99.90;;;7.61;100.00;97820.13;5047302;28;20409;-76
2023/04/17 07:55:19;;;;;;;134.50;31.80;;;8.60;99.90;;;7.62;100.00;97817.25;5051225;28;20412;-75
2023/04/17 07:57:48;;;;;;;145.70;32.53;;;8.60;99.90;;;7.62;100.00;97819.91;5067962;28;20410;-76
2023/04/17 08:00:15;;;;;;;133.53;31.20;;;8.60;99.90;;;7.65;100.00;97819.47;5052192;28;20424;-76
2023/04/17 08:02:41;;;;;;;135.43;30.42;;;8.60;99.90;;;7.66;100.00;97822.91;5052337;28;20397;-76
2023/04/17 08:05:09;;;;;;;109.65;26.83;;;8.60;99.90;;;7.67;100.00;97822.66;5050930;28;20491;-76
2023/04/17 08:07:35;;;;;;;141.52;31.80;;;8.70;99.90;;;7.68;100.00;97826.09;5052078;28;20405;-75
2023/04/17 08:10:01;;;;;;;145.30;32.55;;;8.70;99.90;;;7.67;100.00;97827.13;5052145;28;20755;-76
2023/04/17 08:12:27;;;;;;;140.27;30.15;;;8.70;99.90;;;7.68;100.00;97826.91;5052554;28;20461;-76
2023/04/17 08:14:54;;;;;;;134.48;31.25;;;8.70;99.90;;;7.69;100.00;97831.16;5052028;28;20478;-76
2023/04/17 08:17:22;;;;;;;124.70;29.92;;;8.70;99.90;;;7.71;100.00;97829.13;5052053;28;20418;-75
2023/04/17 08:19:56;;;;;;;131.13;28.60;;;8.70;99.90;;;7.70;100.00;97835.41;5051857;28;20499;-75
2023/04/17 08:22:23;;;;;;;121.68;25.17;;;8.70;99.90;;;7.71;100.00;97833.59;5052152;28;20393;-75
2023/04/17 08:24:49;;;;;;;130.00;29.27;;;8.70;99.90;;;7.70;100.00;97831.97;5051603;28;20883;-75
2023/04/17 08:27:15;;;;;;;133.73;26.98;;;8.70;99.90;;;7.72;100.00;97833.38;5052036;28;20485;-76
2023/04/17 08:29:42;;;;;;;124.47;25.80;;;8.70;99.90;;;7.76;100.00;97831.06;5051938;28;20740;-76
2023/04/17 08:32:09;;;;;;;150.52;29.17;;;8.70;99.90;;;7.80;100.00;97836.72;5052307;28;20428;-76
2023/04/17 08:34:36;;;;;;;118.40;26.58;;;8.80;99.90;;;7.88;100.00;97841.69;5052552;28;20401;-76
2023/04/17 08:37:02;;;;;;;138.55;32.33;;;8.80;99.90;;;7.92;100.00;97843.66;5047869;28;20439;-77
2023/04/17 08:39:28;;;;;;;125.37;30.27;;;8.80;99.90;;;7.92;100.00;97845.47;5032748;28;20449;-77
2023/04/17 08:42:01;;;;;;;127.75;26.20;;;8.90;99.90;;;7.93;100.00;97840.00;5032607;28;20494;-76
2023/04/17 08:44:27;;;;;;;122.67;25.80;;;8.90;99.90;;;7.94;100.00;97841.59;5032604;28;20543;-76
2023/04/17 08:46:57;;;;;;;75.93;21.30;;;8.90;99.90;;;8.06;100.00;97841.63;5032657;28;20851;-77
2023/04/17 08:49:27;;;;;;;122.67;27.93;;;9.00;99.90;;;8.10;100.00;97845.44;5032497;28;20403;-77
2023/04/17 08:51:53;;;;;;;96.30;25.45;;;9.00;99.90;;;8.16;100.00;97848.00;5032917;28;20391;-77
2023/04/17 08:54:21;;;;;;;112.15;25.13;;;9.10;99.90;;;8.24;100.00;97843.44;5032534;28;20422;-77
2023/04/17 08:56:47;;;;;;;107.80;23.05;;;9.10;99.90;;;8.31;100.00;97842.34;5045396;28;20451;-76
2023/04/17 08:59:13;;;;;;;106.50;23.08;;;9.20;99.90;;;8.42;100.00;97846.81;5052108;28;20456;-77
2023/04/17 09:01:57;;;;;;;84.22;21.33;;;9.40;99.90;;;8.57;100.00;97849.03;5034659;28;20484;-77
2023/04/17 09:04:37;;;;;;;84.47;20.33;;;9.50;99.90;;;8.69;100.00;97854.34;5030797;28;20835;-76
2023/04/17 09:07:04;;;;;;;82.18;19.83;;;9.60;99.90;;;8.78;100.00;97856.44;5028753;28;20422;-76
2023/04/17 09:09:46;;;;;;;78.80;22.42;;;9.60;99.90;;;8.84;100.00;97850.25;5031740;28;20446;-75
2023/04/17 09:12:12;;;;;;;80.68;19.40;;;9.70;99.90;;;8.99;100.00;97841.88;5029405;28;20414;-74
2023/04/17 09:14:38;;;;;;;65.70;18.85;;;9.80;99.90;;;9.10;100.00;97850.81;5030496;28;20402;-76
2023/04/17 09:17:04;;;;;;;74.72;17.02;;;9.90;99.90;;;9.19;100.00;97847.59;5028395;28;20403;-75
2023/04/17 09:19:30;;;;;;;59.80;14.38;;;10.10;99.90;;;9.25;100.00;97848.50;5028394;28;20920;-75
2023/04/17 09:22:17;;;;;;;52.78;13.77;;;10.10;99.90;;;9.25;100.00;97844.03;5029649;28;20413;-75
2023/04/17 09:24:46;;;;;;;52.40;15.35;;;10.10;99.90;;;9.25;100.00;97849.31;5040358;28;20523;-75
2023/04/17 09:27:24;;;;;;;57.65;16.13;;;10.10;99.90;;;9.15;100.00;97858.88;5034441;28;20411;-75
2023/04/17 09:30:01;;;;;;;51.15;14.18;;;10.10;99.90;;;9.15;100.00;97846.47;5030673;28;20480;-76
2023/04/17 09:32:28;;;;;;;47.50;14.60;;;10.10;99.90;;;9.18;100.00;97855.75;5030094;28;20757;-75
2023/04/17 09:34:57;;;;;;;53.45;15.27;;;10.00;99.90;;;9.21;100.00;97855.31;5031119;28;20431;-75
2023/04/17 09:37:26;;;;;;;47.67;13.30;;;10.10;99.90;;;9.26;100.00;97858.84;5029029;28;21145;-77
2023/04/17 09:40:00;;;;;;;40.67;13.45;;;10.10;99.90;;;9.27;100.00;97860.47;5030114;28;20852;-76
2023/04/17 09:42:27;;;;;;;56.58;15.27;;;10.10;99.90;;;9.25;100.00;97857.25;5046274;28;20403;-76
2023/04/17 09:44:53;;;;;;;50.10;13.02;;;10.20;99.90;;;9.28;100.00;97858.63;5028785;28;20407;-76
2023/04/17 09:47:21;;;;;;;45.60;12.68;;;10.20;99.90;;;9.35;100.00;97861.16;5030413;28;20399;-76
2023/04/17 09:49:51;;;;;;;45.75;13.07;;;10.20;99.90;;;9.50;100.00;97862.28;5030314;28;20434;-76
2023/04/17 09:52:22;;;;;;;40.67;11.98;;;10.30;99.90;;;9.71;100.00;97856.38;5028508;28;20920;-76
2023/04/17 09:54:52;;;;;;;30.58;11.38;;;10.50;99.90;;;9.99;100.00;97857.47;5030079;28;20433;-76
2023/04/17 09:57:18;;;;;;;30.50;11.13;;;10.80;99.90;;;10.26;100.00;97853.22;5027828;28;20739;-75
2023/04/17 09:59:48;;;;;;;25.13;8.65;;;11.00;99.90;;;10.59;100.00;97855.16;5029095;28;20419;-76
2023/04/17 10:02:16;;;;;;;25.45;8.27;;;11.30;99.90;;;10.81;100.00;97849.94;5030163;28;20437;-77
2023/04/17 10:04:44;;;;;;;20.08;8.20;;;11.50;99.90;;;10.94;100.00;97849.59;5027315;28;20799;-76